sensor_id;sensor_type;location;lat;lon;timestamp;P1;durP1;ratioP1;P2;durP2;ratioP2
12675;SDS011;63820;65.654;21.944;2023-05-19T00:00:06;1.80;;;1.13;;
12675;SDS011;63820;65.654;21.944;2023-05-19T00:02:51;1.17;;;1.00;;
12675;SDS011;63820;65.654;21.944;2023-05-19T00:05:35;1.30;;;1.03;;
12675;SDS011;63820;65.654;21.944;2023-05-19T00:08:23;2.47;;;1.10;;
12675;SDS011;63820;65.654;21.944;2023-05-19T00:11:08;1.40;;;1.17;;
12675;SDS011;63820;65.654;21.944;2023-05-19T00:13:55;1.67;;;1.10;;
12675;SDS011;63820;65.654;21.944;2023-05-19T00:16:41;1.20;;;1.10;;
12675;SDS011;63820;65.654;21.944;2023-05-19T00:19:25;1.67;;;1.10;;
12675;SDS011;63820;65.654;21.944;2023-05-19T00:22:15;1.30;;;1.20;;
12675;SDS011;63820;65.654;21.944;2023-05-19T00:24:59;1.80;;;1.00;;
12675;SDS011;63820;65.654;21.944;2023-05-19T00:27:42;2.63;;;1.23;;
12675;SDS011;63820;65.654;21.944;2023-05-19T00:30:27;1.50;;;0.90;;
12675;SDS011;63820;65.654;21.944;2023-05-19T00:33:11;1.40;;;0.90;;
12675;SDS011;63820;65.654;21.944;2023-05-19T00:35:55;3.20;;;1.20;;
12675;SDS011;63820;65.654;21.944;2023-05-19T00:38:39;1.93;;;1.37;;
12675;SDS011;63820;65.654;21.944;2023-05-19T00:41:23;1.50;;;1.00;;
12675;SDS011;63820;65.654;21.944;2023-05-19T00:44:08;3.53;;;1.27;;
12675;SDS011;63820;65.654;21.944;2023-05-19T00:46:53;1.63;;;1.07;;
12675;SDS011;63820;65.654;21.944;2023-05-19T00:49:37;2.27;;;1.20;;
12675;SDS011;63820;65.654;21.944;2023-05-19T00:52:22;2.43;;;1.30;;
12675;SDS011;63820;65.654;21.944;2023-05-19T00:55:06;2.40;;;1.13;;
12675;SDS011;63820;65.654;21.944;2023-05-19T00:57:51;1.33;;;1.20;;
12675;SDS011;63820;65.654;21.944;2023-05-19T01:00:36;1.33;;;1.07;;
12675;SDS011;63820;65.654;21.944;2023-05-19T01:03:20;1.50;;;1.20;;
12675;SDS011;63820;65.654;21.944;2023-05-19T01:06:06;2.50;;;1.30;;
12675;SDS011;63820;65.654;21.944;2023-05-19T01:08:50;2.50;;;1.30;;
12675;SDS011;63820;65.654;21.944;2023-05-19T01:11:34;1.30;;;1.13;;
12675;SDS011;63820;65.654;21.944;2023-05-19T01:14:18;1.37;;;1.10;;
12675;SDS011;63820;65.654;21.944;2023-05-19T01:23:11;1.60;;;1.20;;
12675;SDS011;63820;65.654;21.944;2023-05-19T01:32:26;1.50;;;1.20;;
12675;SDS011;63820;65.654;21.944;2023-05-19T01:35:14;1.73;;;1.10;;
12675;SDS011;63820;65.654;21.944;2023-05-19T01:37:59;2.63;;;1.23;;
12675;SDS011;63820;65.654;21.944;2023-05-19T01:40:45;1.13;;;1.03;;
12675;SDS011;63820;65.654;21.944;2023-05-19T01:43:30;2.10;;;1.20;;
12675;SDS011;63820;65.654;21.944;2023-05-19T01:46:16;1.33;;;1.13;;
12675;SDS011;63820;65.654;21.944;2023-05-19T01:49:00;1.10;;;0.93;;
12675;SDS011;63820;65.654;21.944;2023-05-19T01:51:45;1.43;;;1.23;;
12675;SDS011;63820;65.654;21.944;2023-05-19T01:54:29;2.47;;;0.90;;
12675;SDS011;63820;65.654;21.944;2023-05-19T01:57:20;1.17;;;1.00;;
12675;SDS011;63820;65.654;21.944;2023-05-19T02:00:15;1.33;;;1.00;;
12675;SDS011;63820;65.654;21.944;2023-05-19T02:06:17;2.00;;;1.10;;
12675;SDS011;63820;65.654;21.944;2023-05-19T02:09:11;1.00;;;0.90;;
12675;SDS011;63820;65.654;21.944;2023-05-19T02:12:24;1.70;;;0.93;;
12675;SDS011;63820;65.654;21.944;2023-05-19T02:15:15;1.50;;;1.00;;
12675;SDS011;63820;65.654;21.944;2023-05-19T02:18:00;2.17;;;1.30;;
12675;SDS011;63820;65.654;21.944;2023-05-19T02:20:46;1.23;;;1.13;;
12675;SDS011;63820;65.654;21.944;2023-05-19T02:23:31;1.60;;;0.90;;
12675;SDS011;63820;65.654;21.944;2023-05-19T02:26:15;1.90;;;1.00;;
12675;SDS011;63820;65.654;21.944;2023-05-19T02:28:59;1.37;;;1.00;;
12675;SDS011;63820;65.654;21.944;2023-05-19T02:31:43;1.37;;;1.00;;
12675;SDS011;63820;65.654;21.944;2023-05-19T02:34:27;2.00;;;1.00;;
12675;SDS011;63820;65.654;21.944;2023-05-19T02:37:14;1.33;;;0.90;;
12675;SDS011;63820;65.654;21.944;2023-05-19T02:39:59;1.87;;;1.07;;
12675;SDS011;63820;65.654;21.944;2023-05-19T02:42:43;2.90;;;1.10;;
12675;SDS011;63820;65.654;21.944;2023-05-19T02:45:27;1.83;;;1.00;;
12675;SDS011;63820;65.654;21.944;2023-05-19T02:48:12;1.87;;;1.40;;
12675;SDS011;63820;65.654;21.944;2023-05-19T02:50:56;2.53;;;1.30;;
12675;SDS011;63820;65.654;21.944;2023-05-19T02:53:39;2.40;;;1.10;;
12675;SDS011;63820;65.654;21.944;2023-05-19T02:56:24;1.30;;;1.20;;
12675;SDS011;63820;65.654;21.944;2023-05-19T02:59:08;1.70;;;1.30;;
12675;SDS011;63820;65.654;21.944;2023-05-19T03:01:57;2.67;;;1.30;;
12675;SDS011;63820;65.654;21.944;2023-05-19T03:04:42;2.53;;;1.60;;
12675;SDS011;63820;65.654;21.944;2023-05-19T03:07:26;2.90;;;1.50;;
12675;SDS011;63820;65.654;21.944;2023-05-19T03:10:10;1.93;;;1.73;;
12675;SDS011;63820;65.654;21.944;2023-05-19T03:12:54;2.17;;;1.70;;
12675;SDS011;63820;65.654;21.944;2023-05-19T03:15:39;2.83;;;2.53;;
12675;SDS011;63820;65.654;21.944;2023-05-19T03:18:25;3.20;;;2.40;;
12675;SDS011;63820;65.654;21.944;2023-05-19T03:21:09;3.57;;;2.33;;
12675;SDS011;63820;65.654;21.944;2023-05-19T03:23:54;3.03;;;2.50;;
12675;SDS011;63820;65.654;21.944;2023-05-19T03:26:38;2.90;;;2.23;;
12675;SDS011;63820;65.654;21.944;2023-05-19T03:29:23;4.40;;;2.70;;
12675;SDS011;63820;65.654;21.944;2023-05-19T03:32:07;2.37;;;2.10;;
12675;SDS011;63820;65.654;21.944;2023-05-19T03:34:51;2.87;;;1.90;;
12675;SDS011;63820;65.654;21.944;2023-05-19T03:37:35;3.03;;;1.93;;
12675;SDS011;63820;65.654;21.944;2023-05-19T03:40:19;3.77;;;1.70;;
12675;SDS011;63820;65.654;21.944;2023-05-19T03:43:03;2.43;;;1.50;;
12675;SDS011;63820;65.654;21.944;2023-05-19T03:45:48;2.90;;;1.63;;
12675;SDS011;63820;65.654;21.944;2023-05-19T03:48:31;1.83;;;1.50;;
12675;SDS011;63820;65.654;21.944;2023-05-19T03:51:15;1.70;;;1.57;;
12675;SDS011;63820;65.654;21.944;2023-05-19T03:54:00;1.93;;;0.90;;
12675;SDS011;63820;65.654;21.944;2023-05-19T03:56:44;1.37;;;1.23;;
12675;SDS011;63820;65.654;21.944;2023-05-19T03:59:29;1.98;;;1.10;;
12675;SDS011;63820;65.654;21.944;2023-05-19T04:02:13;1.30;;;1.10;;
12675;SDS011;63820;65.654;21.944;2023-05-19T04:04:57;1.20;;;1.10;;
12675;SDS011;63820;65.654;21.944;2023-05-19T04:07:41;1.15;;;0.90;;
12675;SDS011;63820;65.654;21.944;2023-05-19T04:10:26;1.55;;;1.20;;
12675;SDS011;63820;65.654;21.944;2023-05-19T04:13:10;0.90;;;0.80;;
12675;SDS011;63820;65.654;21.944;2023-05-19T04:15:54;1.13;;;0.98;;
12675;SDS011;63820;65.654;21.944;2023-05-19T04:18:39;1.75;;;1.10;;
12675;SDS011;63820;65.654;21.944;2023-05-19T04:21:23;1.20;;;1.10;;
12675;SDS011;63820;65.654;21.944;2023-05-19T04:24:07;1.90;;;1.10;;
12675;SDS011;63820;65.654;21.944;2023-05-19T04:26:51;1.92;;;0.90;;
12675;SDS011;63820;65.654;21.944;2023-05-19T04:29:39;1.17;;;0.80;;
12675;SDS011;63820;65.654;21.944;2023-05-19T04:32:23;0.90;;;0.73;;
12675;SDS011;63820;65.654;21.944;2023-05-19T04:35:08;1.53;;;0.60;;
12675;SDS011;63820;65.654;21.944;2023-05-19T04:37:52;1.10;;;0.60;;
12675;SDS011;63820;65.654;21.944;2023-05-19T04:40:37;1.27;;;0.80;;
12675;SDS011;63820;65.654;21.944;2023-05-19T04:43:23;1.60;;;0.90;;
12675;SDS011;63820;65.654;21.944;2023-05-19T04:46:07;1.23;;;0.90;;
12675;SDS011;63820;65.654;21.944;2023-05-19T04:48:53;1.20;;;1.03;;
12675;SDS011;63820;65.654;21.944;2023-05-19T04:51:38;1.37;;;0.80;;
12675;SDS011;63820;65.654;21.944;2023-05-19T04:54:24;1.30;;;0.90;;
12675;SDS011;63820;65.654;21.944;2023-05-19T04:57:09;1.10;;;0.83;;
12675;SDS011;63820;65.654;21.944;2023-05-19T04:59:53;1.37;;;0.70;;
12675;SDS011;63820;65.654;21.944;2023-05-19T05:02:42;0.83;;;0.70;;
12675;SDS011;63820;65.654;21.944;2023-05-19T05:05:26;1.63;;;0.97;;
12675;SDS011;63820;65.654;21.944;2023-05-19T05:08:10;0.90;;;0.70;;
12675;SDS011;63820;65.654;21.944;2023-05-19T05:10:54;1.87;;;0.70;;
12675;SDS011;63820;65.654;21.944;2023-05-19T05:13:39;1.30;;;0.70;;
12675;SDS011;63820;65.654;21.944;2023-05-19T05:16:24;1.17;;;0.90;;
12675;SDS011;63820;65.654;21.944;2023-05-19T05:19:09;1.43;;;0.70;;
12675;SDS011;63820;65.654;21.944;2023-05-19T05:21:53;1.50;;;0.67;;
12675;SDS011;63820;65.654;21.944;2023-05-19T05:24:38;1.67;;;0.60;;
12675;SDS011;63820;65.654;21.944;2023-05-19T05:27:23;1.30;;;0.80;;
12675;SDS011;63820;65.654;21.944;2023-05-19T05:30:07;1.53;;;0.80;;
12675;SDS011;63820;65.654;21.944;2023-05-19T05:32:52;2.13;;;0.70;;
12675;SDS011;63820;65.654;21.944;2023-05-19T05:35:36;1.53;;;0.60;;
12675;SDS011;63820;65.654;21.944;2023-05-19T05:38:20;0.73;;;0.73;;
12675;SDS011;63820;65.654;21.944;2023-05-19T05:41:04;1.63;;;0.70;;
12675;SDS011;63820;65.654;21.944;2023-05-19T05:43:48;0.77;;;0.60;;
12675;SDS011;63820;65.654;21.944;2023-05-19T05:46:32;0.57;;;0.50;;
12675;SDS011;63820;65.654;21.944;2023-05-19T05:49:17;0.60;;;0.60;;
12675;SDS011;63820;65.654;21.944;2023-05-19T05:52:01;1.20;;;0.70;;
12675;SDS011;63820;65.654;21.944;2023-05-19T05:54:47;0.90;;;0.60;;
12675;SDS011;63820;65.654;21.944;2023-05-19T05:57:31;1.43;;;0.60;;
12675;SDS011;63820;65.654;21.944;2023-05-19T06:00:17;0.90;;;0.60;;
12675;SDS011;63820;65.654;21.944;2023-05-19T06:03:02;0.70;;;0.57;;
12675;SDS011;63820;65.654;21.944;2023-05-19T06:05:47;1.37;;;0.60;;
12675;SDS011;63820;65.654;21.944;2023-05-19T06:08:31;0.60;;;0.60;;
12675;SDS011;63820;65.654;21.944;2023-05-19T06:11:15;0.97;;;0.73;;
12675;SDS011;63820;65.654;21.944;2023-05-19T06:13:59;1.53;;;0.77;;
12675;SDS011;63820;65.654;21.944;2023-05-19T06:16:43;1.47;;;0.50;;
12675;SDS011;63820;65.654;21.944;2023-05-19T06:19:27;1.53;;;0.60;;
12675;SDS011;63820;65.654;21.944;2023-05-19T06:22:11;1.27;;;0.70;;
12675;SDS011;63820;65.654;21.944;2023-05-19T06:24:55;0.50;;;0.50;;
12675;SDS011;63820;65.654;21.944;2023-05-19T06:27:40;0.83;;;0.67;;
12675;SDS011;63820;65.654;21.944;2023-05-19T06:30:24;0.60;;;0.50;;
12675;SDS011;63820;65.654;21.944;2023-05-19T06:33:08;0.80;;;0.53;;
12675;SDS011;63820;65.654;21.944;2023-05-19T06:35:52;0.77;;;0.60;;
12675;SDS011;63820;65.654;21.944;2023-05-19T06:38:37;0.60;;;0.57;;
12675;SDS011;63820;65.654;21.944;2023-05-19T06:41:21;0.82;;;0.52;;
12675;SDS011;63820;65.654;21.944;2023-05-19T06:44:05;0.60;;;0.60;;
12675;SDS011;63820;65.654;21.944;2023-05-19T06:46:51;1.73;;;0.70;;
12675;SDS011;63820;65.654;21.944;2023-05-19T06:49:35;1.20;;;0.77;;
12675;SDS011;63820;65.654;21.944;2023-05-19T06:52:20;0.60;;;0.60;;
12675;SDS011;63820;65.654;21.944;2023-05-19T06:55:05;1.13;;;0.70;;
12675;SDS011;63820;65.654;21.944;2023-05-19T06:57:49;0.63;;;0.60;;
12675;SDS011;63820;65.654;21.944;2023-05-19T07:00:33;1.10;;;0.80;;
12675;SDS011;63820;65.654;21.944;2023-05-19T07:03:17;1.02;;;0.65;;
12675;SDS011;63820;65.654;21.944;2023-05-19T07:06:01;0.80;;;0.57;;
12675;SDS011;63820;65.654;21.944;2023-05-19T07:08:45;0.73;;;0.70;;
12675;SDS011;63820;65.654;21.944;2023-05-19T07:11:29;0.60;;;0.60;;
12675;SDS011;63820;65.654;21.944;2023-05-19T07:14:13;0.80;;;0.75;;
12675;SDS011;63820;65.654;21.944;2023-05-19T07:16:58;0.90;;;0.80;;
12675;SDS011;63820;65.654;21.944;2023-05-19T07:19:42;1.10;;;0.80;;
12675;SDS011;63820;65.654;21.944;2023-05-19T07:22:26;1.80;;;0.70;;
12675;SDS011;63820;65.654;21.944;2023-05-19T07:25:10;0.70;;;0.70;;
12675;SDS011;63820;65.654;21.944;2023-05-19T07:27:55;0.90;;;0.80;;
12675;SDS011;63820;65.654;21.944;2023-05-19T07:30:39;0.80;;;0.80;;
12675;SDS011;63820;65.654;21.944;2023-05-19T07:33:23;1.48;;;0.70;;
12675;SDS011;63820;65.654;21.944;2023-05-19T07:36:09;1.08;;;0.90;;
12675;SDS011;63820;65.654;21.944;2023-05-19T07:38:54;1.27;;;1.00;;
12675;SDS011;63820;65.654;21.944;2023-05-19T07:41:38;1.00;;;0.82;;
12675;SDS011;63820;65.654;21.944;2023-05-19T07:44:22;1.48;;;0.80;;
12675;SDS011;63820;65.654;21.944;2023-05-19T07:47:06;1.45;;;0.90;;
12675;SDS011;63820;65.654;21.944;2023-05-19T07:49:50;1.00;;;0.90;;
12675;SDS011;63820;65.654;21.944;2023-05-19T07:52:34;1.88;;;0.98;;
12675;SDS011;63820;65.654;21.944;2023-05-19T07:55:19;0.82;;;0.73;;
12675;SDS011;63820;65.654;21.944;2023-05-19T07:58:05;1.52;;;1.05;;
12675;SDS011;63820;65.654;21.944;2023-05-19T08:00:50;1.77;;;0.93;;
12675;SDS011;63820;65.654;21.944;2023-05-19T08:03:34;0.90;;;0.77;;
12675;SDS011;63820;65.654;21.944;2023-05-19T08:06:18;1.00;;;0.80;;
12675;SDS011;63820;65.654;21.944;2023-05-19T08:09:02;1.00;;;0.77;;
12675;SDS011;63820;65.654;21.944;2023-05-19T08:11:47;0.70;;;0.60;;
12675;SDS011;63820;65.654;21.944;2023-05-19T08:14:32;0.95;;;0.90;;
12675;SDS011;63820;65.654;21.944;2023-05-19T08:17:17;1.48;;;1.00;;
12675;SDS011;63820;65.654;21.944;2023-05-19T08:20:02;0.90;;;0.80;;
12675;SDS011;63820;65.654;21.944;2023-05-19T08:22:48;1.23;;;0.80;;
12675;SDS011;63820;65.654;21.944;2023-05-19T08:25:33;1.13;;;0.90;;
12675;SDS011;63820;65.654;21.944;2023-05-19T08:28:17;0.98;;;0.80;;
12675;SDS011;63820;65.654;21.944;2023-05-19T08:31:01;1.20;;;0.80;;
12675;SDS011;63820;65.654;21.944;2023-05-19T08:33:45;0.70;;;0.70;;
12675;SDS011;63820;65.654;21.944;2023-05-19T08:36:29;0.73;;;0.70;;
12675;SDS011;63820;65.654;21.944;2023-05-19T08:39:13;1.15;;;0.98;;
12675;SDS011;63820;65.654;21.944;2023-05-19T08:41:59;2.60;;;0.93;;
12675;SDS011;63820;65.654;21.944;2023-05-19T08:44:44;1.63;;;0.95;;
12675;SDS011;63820;65.654;21.944;2023-05-19T08:47:28;0.90;;;0.88;;
12675;SDS011;63820;65.654;21.944;2023-05-19T08:50:15;0.80;;;0.80;;
12675;SDS011;63820;65.654;21.944;2023-05-19T08:53:09;1.20;;;0.93;;
12675;SDS011;63820;65.654;21.944;2023-05-19T08:56:01;0.90;;;0.90;;
12675;SDS011;63820;65.654;21.944;2023-05-19T08:58:52;1.35;;;0.90;;
12675;SDS011;63820;65.654;21.944;2023-05-19T09:01:41;0.80;;;0.80;;
12675;SDS011;63820;65.654;21.944;2023-05-19T09:04:27;1.60;;;1.00;;
12675;SDS011;63820;65.654;21.944;2023-05-19T09:07:13;0.90;;;0.90;;
12675;SDS011;63820;65.654;21.944;2023-05-19T09:09:58;1.10;;;1.00;;
12675;SDS011;63820;65.654;21.944;2023-05-19T09:12:44;1.42;;;1.10;;
12675;SDS011;63820;65.654;21.944;2023-05-19T09:15:32;1.02;;;0.93;;
12675;SDS011;63820;65.654;21.944;2023-05-19T09:18:19;1.08;;;0.82;;
12675;SDS011;63820;65.654;21.944;2023-05-19T09:21:03;1.33;;;0.93;;
12675;SDS011;63820;65.654;21.944;2023-05-19T09:23:49;1.10;;;1.00;;
12675;SDS011;63820;65.654;21.944;2023-05-19T09:26:37;1.45;;;0.90;;
12675;SDS011;63820;65.654;21.944;2023-05-19T09:29:23;0.90;;;0.80;;
12675;SDS011;63820;65.654;21.944;2023-05-19T09:32:08;2.80;;;1.00;;
12675;SDS011;63820;65.654;21.944;2023-05-19T09:34:52;1.10;;;0.90;;
12675;SDS011;63820;65.654;21.944;2023-05-19T09:37:41;1.20;;;0.80;;
12675;SDS011;63820;65.654;21.944;2023-05-19T09:40:28;1.50;;;0.83;;
12675;SDS011;63820;65.654;21.944;2023-05-19T09:43:13;0.87;;;0.87;;
12675;SDS011;63820;65.654;21.944;2023-05-19T09:46:04;1.17;;;0.80;;
12675;SDS011;63820;65.654;21.944;2023-05-19T09:48:50;2.50;;;0.80;;
12675;SDS011;63820;65.654;21.944;2023-05-19T09:51:39;1.30;;;0.90;;
12675;SDS011;63820;65.654;21.944;2023-05-19T09:54:24;1.40;;;1.10;;
12675;SDS011;63820;65.654;21.944;2023-05-19T09:57:10;1.47;;;1.10;;
12675;SDS011;63820;65.654;21.944;2023-05-19T09:59:55;1.10;;;1.00;;
12675;SDS011;63820;65.654;21.944;2023-05-19T10:02:41;1.17;;;1.00;;
12675;SDS011;63820;65.654;21.944;2023-05-19T10:05:29;1.47;;;1.10;;
12675;SDS011;63820;65.654;21.944;2023-05-19T10:08:15;1.13;;;1.03;;
12675;SDS011;63820;65.654;21.944;2023-05-19T10:11:00;1.17;;;1.02;;
12675;SDS011;63820;65.654;21.944;2023-05-19T10:13:45;1.25;;;0.75;;
12675;SDS011;63820;65.654;21.944;2023-05-19T10:16:33;1.10;;;1.00;;
12675;SDS011;63820;65.654;21.944;2023-05-19T10:19:22;1.00;;;0.90;;
12675;SDS011;63820;65.654;21.944;2023-05-19T10:22:07;0.73;;;0.73;;
12675;SDS011;63820;65.654;21.944;2023-05-19T10:24:51;1.30;;;0.60;;
12675;SDS011;63820;65.654;21.944;2023-05-19T10:27:57;0.60;;;0.60;;
12675;SDS011;63820;65.654;21.944;2023-05-19T10:30:43;1.17;;;0.77;;
12675;SDS011;63820;65.654;21.944;2023-05-19T10:33:35;0.90;;;0.73;;
12675;SDS011;63820;65.654;21.944;2023-05-19T10:36:47;1.37;;;0.90;;
12675;SDS011;63820;65.654;21.944;2023-05-19T10:39:33;2.33;;;0.87;;
12675;SDS011;63820;65.654;21.944;2023-05-19T10:42:23;0.97;;;0.70;;
12675;SDS011;63820;65.654;21.944;2023-05-19T10:45:19;0.80;;;0.80;;
12675;SDS011;63820;65.654;21.944;2023-05-19T10:48:10;1.35;;;0.50;;
12675;SDS011;63820;65.654;21.944;2023-05-19T10:50:56;0.90;;;0.80;;
12675;SDS011;63820;65.654;21.944;2023-05-19T10:53:41;1.00;;;0.70;;
12675;SDS011;63820;65.654;21.944;2023-05-19T10:56:29;0.82;;;0.70;;
12675;SDS011;63820;65.654;21.944;2023-05-19T10:59:30;0.85;;;0.70;;
12675;SDS011;63820;65.654;21.944;2023-05-19T11:05:24;1.25;;;0.80;;
12675;SDS011;63820;65.654;21.944;2023-05-19T11:08:11;1.73;;;0.93;;
12675;SDS011;63820;65.654;21.944;2023-05-19T11:10:56;0.80;;;0.70;;
12675;SDS011;63820;65.654;21.944;2023-05-19T11:13:54;0.77;;;0.63;;
12675;SDS011;63820;65.654;21.944;2023-05-19T11:16:39;0.80;;;0.70;;
12675;SDS011;63820;65.654;21.944;2023-05-19T11:19:32;0.90;;;0.65;;
12675;SDS011;63820;65.654;21.944;2023-05-19T11:22:21;0.90;;;0.65;;
12675;SDS011;63820;65.654;21.944;2023-05-19T11:25:07;0.57;;;0.55;;
12675;SDS011;63820;65.654;21.944;2023-05-19T11:27:52;1.15;;;0.63;;
12675;SDS011;63820;65.654;21.944;2023-05-19T11:30:37;0.68;;;0.55;;
12675;SDS011;63820;65.654;21.944;2023-05-19T11:33:22;0.80;;;0.70;;
12675;SDS011;63820;65.654;21.944;2023-05-19T11:36:09;1.33;;;0.80;;
12675;SDS011;63820;65.654;21.944;2023-05-19T11:38:55;0.70;;;0.70;;
12675;SDS011;63820;65.654;21.944;2023-05-19T11:41:40;1.40;;;0.80;;
12675;SDS011;63820;65.654;21.944;2023-05-19T11:44:26;1.35;;;0.80;;
12675;SDS011;63820;65.654;21.944;2023-05-19T11:47:10;0.90;;;0.80;;
12675;SDS011;63820;65.654;21.944;2023-05-19T11:49:55;1.05;;;0.70;;
12675;SDS011;63820;65.654;21.944;2023-05-19T11:52:43;1.13;;;0.82;;
12675;SDS011;63820;65.654;21.944;2023-05-19T11:55:28;0.98;;;0.60;;
12675;SDS011;63820;65.654;21.944;2023-05-19T11:58:12;0.55;;;0.50;;
12675;SDS011;63820;65.654;21.944;2023-05-19T12:01:02;1.02;;;0.77;;
12675;SDS011;63820;65.654;21.944;2023-05-19T12:03:46;1.13;;;0.70;;
12675;SDS011;63820;65.654;21.944;2023-05-19T12:06:32;1.23;;;0.85;;
12675;SDS011;63820;65.654;21.944;2023-05-19T12:09:17;0.98;;;0.70;;
12675;SDS011;63820;65.654;21.944;2023-05-19T12:12:02;0.68;;;0.63;;
12675;SDS011;63820;65.654;21.944;2023-05-19T12:14:48;0.68;;;0.65;;
12675;SDS011;63820;65.654;21.944;2023-05-19T12:17:34;0.63;;;0.60;;
12675;SDS011;63820;65.654;21.944;2023-05-19T12:20:18;1.20;;;0.60;;
12675;SDS011;63820;65.654;21.944;2023-05-19T12:23:02;0.75;;;0.60;;
12675;SDS011;63820;65.654;21.944;2023-05-19T12:25:47;0.57;;;0.57;;
12675;SDS011;63820;65.654;21.944;2023-05-19T12:28:32;0.95;;;0.70;;
12675;SDS011;63820;65.654;21.944;2023-05-19T12:31:17;0.98;;;0.50;;
12675;SDS011;63820;65.654;21.944;2023-05-19T12:34:02;0.55;;;0.50;;
12675;SDS011;63820;65.654;21.944;2023-05-19T12:36:46;0.47;;;0.47;;
12675;SDS011;63820;65.654;21.944;2023-05-19T12:39:30;0.50;;;0.50;;
12675;SDS011;63820;65.654;21.944;2023-05-19T12:42:15;1.33;;;0.45;;
12675;SDS011;63820;65.654;21.944;2023-05-19T12:45:00;0.70;;;0.60;;
12675;SDS011;63820;65.654;21.944;2023-05-19T12:47:46;0.65;;;0.50;;
12675;SDS011;63820;65.654;21.944;2023-05-19T12:50:31;0.73;;;0.50;;
12675;SDS011;63820;65.654;21.944;2023-05-19T12:53:16;0.63;;;0.52;;
12675;SDS011;63820;65.654;21.944;2023-05-19T12:56:00;0.80;;;0.60;;
12675;SDS011;63820;65.654;21.944;2023-05-19T12:58:44;0.82;;;0.80;;
12675;SDS011;63820;65.654;21.944;2023-05-19T13:01:28;0.60;;;0.60;;
12675;SDS011;63820;65.654;21.944;2023-05-19T13:04:13;0.63;;;0.63;;
12675;SDS011;63820;65.654;21.944;2023-05-19T13:06:57;0.77;;;0.60;;
12675;SDS011;63820;65.654;21.944;2023-05-19T13:09:42;1.13;;;0.80;;
12675;SDS011;63820;65.654;21.944;2023-05-19T13:12:27;0.73;;;0.73;;
12675;SDS011;63820;65.654;21.944;2023-05-19T13:15:11;0.75;;;0.70;;
12675;SDS011;63820;65.654;21.944;2023-05-19T13:17:56;0.60;;;0.60;;
12675;SDS011;63820;65.654;21.944;2023-05-19T13:20:41;0.70;;;0.60;;
12675;SDS011;63820;65.654;21.944;2023-05-19T13:23:27;1.13;;;0.80;;
12675;SDS011;63820;65.654;21.944;2023-05-19T13:26:11;0.95;;;0.70;;
12675;SDS011;63820;65.654;21.944;2023-05-19T13:28:56;0.90;;;0.60;;
12675;SDS011;63820;65.654;21.944;2023-05-19T13:31:40;1.55;;;0.63;;
12675;SDS011;63820;65.654;21.944;2023-05-19T13:34:24;0.75;;;0.70;;
12675;SDS011;63820;65.654;21.944;2023-05-19T13:37:08;1.20;;;0.82;;
12675;SDS011;63820;65.654;21.944;2023-05-19T13:39:53;0.75;;;0.60;;
12675;SDS011;63820;65.654;21.944;2023-05-19T13:42:39;0.70;;;0.60;;
12675;SDS011;63820;65.654;21.944;2023-05-19T13:45:23;0.60;;;0.50;;
12675;SDS011;63820;65.654;21.944;2023-05-19T13:48:07;0.75;;;0.47;;
12675;SDS011;63820;65.654;21.944;2023-05-19T13:50:51;0.68;;;0.45;;
12675;SDS011;63820;65.654;21.944;2023-05-19T13:53:37;0.55;;;0.50;;
12675;SDS011;63820;65.654;21.944;2023-05-19T13:56:22;0.40;;;0.40;;
12675;SDS011;63820;65.654;21.944;2023-05-19T13:59:06;0.50;;;0.50;;
12675;SDS011;63820;65.654;21.944;2023-05-19T14:01:50;0.47;;;0.40;;
12675;SDS011;63820;65.654;21.944;2023-05-19T14:04:38;0.80;;;0.47;;
12675;SDS011;63820;65.654;21.944;2023-05-19T14:07:22;0.47;;;0.47;;
12675;SDS011;63820;65.654;21.944;2023-05-19T14:10:07;1.15;;;0.57;;
12675;SDS011;63820;65.654;21.944;2023-05-19T14:12:51;0.80;;;0.70;;
12675;SDS011;63820;65.654;21.944;2023-05-19T14:15:36;0.85;;;0.55;;
12675;SDS011;63820;65.654;21.944;2023-05-19T14:18:21;0.68;;;0.55;;
12675;SDS011;63820;65.654;21.944;2023-05-19T14:21:05;0.40;;;0.40;;
12675;SDS011;63820;65.654;21.944;2023-05-19T14:23:49;0.75;;;0.50;;
12675;SDS011;63820;65.654;21.944;2023-05-19T14:26:33;0.43;;;0.40;;
12675;SDS011;63820;65.654;21.944;2023-05-19T14:29:18;0.50;;;0.50;;
12675;SDS011;63820;65.654;21.944;2023-05-19T14:32:02;0.40;;;0.40;;
12675;SDS011;63820;65.654;21.944;2023-05-19T14:34:48;0.85;;;0.50;;
12675;SDS011;63820;65.654;21.944;2023-05-19T14:37:35;0.47;;;0.47;;
12675;SDS011;63820;65.654;21.944;2023-05-19T14:40:19;1.15;;;0.52;;
12675;SDS011;63820;65.654;21.944;2023-05-19T14:43:03;0.98;;;0.60;;
12675;SDS011;63820;65.654;21.944;2023-05-19T14:45:47;0.60;;;0.50;;
12675;SDS011;63820;65.654;21.944;2023-05-19T14:48:32;0.68;;;0.55;;
12675;SDS011;63820;65.654;21.944;2023-05-19T14:51:16;0.50;;;0.50;;
12675;SDS011;63820;65.654;21.944;2023-05-19T14:54:00;0.65;;;0.45;;
12675;SDS011;63820;65.654;21.944;2023-05-19T14:56:44;0.70;;;0.53;;
12675;SDS011;63820;65.654;21.944;2023-05-19T14:59:28;0.68;;;0.68;;
12675;SDS011;63820;65.654;21.944;2023-05-19T15:02:12;0.60;;;0.50;;
12675;SDS011;63820;65.654;21.944;2023-05-19T15:04:56;0.93;;;0.52;;
12675;SDS011;63820;65.654;21.944;2023-05-19T15:07:40;0.80;;;0.57;;
12675;SDS011;63820;65.654;21.944;2023-05-19T15:10:25;0.77;;;0.68;;
12675;SDS011;63820;65.654;21.944;2023-05-19T15:13:08;0.70;;;0.57;;
12675;SDS011;63820;65.654;21.944;2023-05-19T15:15:54;0.60;;;0.60;;
12675;SDS011;63820;65.654;21.944;2023-05-19T15:18:38;0.95;;;0.70;;
12675;SDS011;63820;65.654;21.944;2023-05-19T15:21:23;1.10;;;0.52;;
12675;SDS011;63820;65.654;21.944;2023-05-19T15:24:07;0.80;;;0.75;;
12675;SDS011;63820;65.654;21.944;2023-05-19T15:26:51;0.50;;;0.50;;
12675;SDS011;63820;65.654;21.944;2023-05-19T15:29:35;0.52;;;0.52;;
12675;SDS011;63820;65.654;21.944;2023-05-19T15:32:19;0.75;;;0.63;;
12675;SDS011;63820;65.654;21.944;2023-05-19T15:35:03;1.00;;;0.60;;
12675;SDS011;63820;65.654;21.944;2023-05-19T15:37:48;1.05;;;0.77;;
12675;SDS011;63820;65.654;21.944;2023-05-19T15:40:32;1.98;;;0.77;;
12675;SDS011;63820;65.654;21.944;2023-05-19T15:43:16;0.60;;;0.52;;
12675;SDS011;63820;65.654;21.944;2023-05-19T15:46:00;0.53;;;0.50;;
12675;SDS011;63820;65.654;21.944;2023-05-19T15:48:47;0.70;;;0.70;;
12675;SDS011;63820;65.654;21.944;2023-05-19T15:51:31;0.70;;;0.60;;
12675;SDS011;63820;65.654;21.944;2023-05-19T15:54:15;0.60;;;0.60;;
12675;SDS011;63820;65.654;21.944;2023-05-19T15:56:59;0.80;;;0.80;;
12675;SDS011;63820;65.654;21.944;2023-05-19T15:59:43;3.57;;;3.27;;
12675;SDS011;63820;65.654;21.944;2023-05-19T16:02:27;3.30;;;3.00;;
12675;SDS011;63820;65.654;21.944;2023-05-19T16:05:11;4.37;;;4.07;;
12675;SDS011;63820;65.654;21.944;2023-05-19T16:07:55;0.70;;;0.63;;
12675;SDS011;63820;65.654;21.944;2023-05-19T16:10:40;0.80;;;0.77;;
12675;SDS011;63820;65.654;21.944;2023-05-19T16:13:24;2.20;;;0.80;;
12675;SDS011;63820;65.654;21.944;2023-05-19T16:16:09;0.87;;;0.53;;
12675;SDS011;63820;65.654;21.944;2023-05-19T16:18:53;0.57;;;0.50;;
12675;SDS011;63820;65.654;21.944;2023-05-19T16:21:37;0.40;;;0.30;;
12675;SDS011;63820;65.654;21.944;2023-05-19T16:24:21;0.70;;;0.67;;
12675;SDS011;63820;65.654;21.944;2023-05-19T16:27:05;2.13;;;1.93;;
12675;SDS011;63820;65.654;21.944;2023-05-19T16:29:49;1.87;;;1.67;;
12675;SDS011;63820;65.654;21.944;2023-05-19T16:32:33;1.20;;;1.10;;
12675;SDS011;63820;65.654;21.944;2023-05-19T16:35:18;0.67;;;0.67;;
12675;SDS011;63820;65.654;21.944;2023-05-19T16:38:03;0.73;;;0.60;;